Time;durP1;ratioP1;P1;durP2;ratioP2;P2;SDS_P1;SDS_P2;PMS_P1;PMS_P2;Temp;Humidity;BMP_temperature;BMP_pressure;BME280_temperature;BME280_humidity;BME280_pressure;Samples;Min_cycle;Max_cycle;Signal;HPM_P1;HPM_P2
2023/09/07 00:02:13;;;;;;;5.70;4.20;;;;;;;19.58;70.75;100431.34;105980;1258;60415;-80
2023/09/07 00:04:41;;;;;;;5.30;4.10;;;;;;;19.54;70.85;100434.21;105817;1254;72651;-77
2023/09/07 00:07:10;;;;;;;8.00;4.30;;;;;;;19.48;70.96;100437.70;105847;1254;68700;-79
2023/09/07 00:09:37;;;;;;;4.60;4.20;;;;;;;19.42;70.94;100443.25;105863;1254;72700;-79
2023/09/07 00:12:05;;;;;;;5.60;3.50;;;;;;;19.47;70.81;100444.98;105923;1254;61656;-81
2023/09/07 00:14:32;;;;;;;6.90;4.40;;;;;;;19.51;70.77;100445.74;106988;1254;60588;-79
2023/09/07 00:16:59;;;;;;;5.60;3.90;;;;;;;19.47;70.52;100446.95;106343;1257;74189;-80
2023/09/07 00:19:29;;;;;;;5.90;4.60;;;;;;;19.42;70.53;100451.22;106035;1254;70484;-81
2023/09/07 00:21:56;;;;;;;6.00;4.40;;;;;;;19.36;70.49;100451.27;106015;1254;73976;-80
2023/09/07 00:24:23;;;;;;;5.20;3.80;;;;;;;19.32;70.64;100455.45;105972;1254;60505;-81
2023/09/07 00:26:51;;;;;;;5.40;4.30;;;;;;;19.27;70.77;100455.79;105923;1252;60454;-80
2023/09/07 00:29:19;;;;;;;4.60;4.10;;;;;;;19.21;70.68;100462.21;105987;1254;71856;-80
2023/09/07 00:31:46;;;;;;;4.30;3.40;;;;;;;19.15;70.89;100463.71;106030;1253;70718;-81
2023/09/07 00:34:14;;;;;;;5.00;4.30;;;;;;;19.17;70.88;100471.28;105884;1254;72681;-79
2023/09/07 00:36:42;;;;;;;5.30;4.00;;;;;;;19.19;70.82;100472.65;105918;1254;60832;-81
2023/09/07 00:39:10;;;;;;;9.30;4.80;;;;;;;19.15;70.86;100472.85;106022;1254;60799;-81
2023/09/07 00:41:37;;;;;;;6.10;4.50;;;;;;;19.10;70.95;100473.15;106428;1254;72379;-79
2023/09/07 00:44:04;;;;;;;5.60;4.10;;;;;;;19.05;71.05;100475.39;107565;1254;68883;-81
2023/09/07 00:46:32;;;;;;;4.80;4.30;;;;;;;19.02;71.08;100478.73;107387;1253;71468;-81
2023/09/07 00:48:59;;;;;;;6.60;4.70;;;;;;;18.97;71.04;100477.15;105729;1259;60486;-77
2023/09/07 00:51:27;;;;;;;8.20;5.20;;;;;;;18.93;71.09;100482.74;106558;1252;60476;-79
2023/09/07 00:53:54;;;;;;;5.40;3.80;;;;;;;18.89;71.16;100480.05;106395;1254;73938;-76
2023/09/07 00:56:22;;;;;;;5.10;4.60;;;;;;;18.96;70.94;100481.73;108033;1254;70019;-77
2023/09/07 00:58:49;;;;;;;7.20;4.90;;;;;;;19.01;70.88;100478.86;108639;1254;71638;-78
2023/09/07 01:01:17;;;;;;;7.10;4.50;;;;;;;19.01;70.84;100475.84;107272;1260;60242;-77
2023/09/07 01:03:44;;;;;;;6.40;3.70;;;;;;;18.99;70.81;100480.02;105896;1253;60483;-79
2023/09/07 01:06:17;;;;;;;4.90;4.40;;;;;;;18.97;70.67;100480.89;106142;1252;73954;-78
2023/09/07 01:08:47;;;;;;;6.90;5.00;;;;;;;18.94;70.70;100479.42;106498;1253;71260;-76
2023/09/07 01:11:20;;;;;;;6.50;4.30;;;;;;;18.89;70.66;100479.89;107522;1253;71124;-78
2023/09/07 01:13:51;;;;;;;5.80;4.60;;;;;;;18.85;70.71;100479.94;107276;1254;60432;-77
2023/09/07 01:16:20;;;;;;;4.90;4.40;;;;;;;18.82;70.81;100480.70;108184;1253;60255;-77
2023/09/07 01:18:48;;;;;;;5.70;4.20;;;;;;;18.87;70.73;100483.90;108331;1257;72322;-76
2023/09/07 01:21:15;;;;;;;5.80;4.00;;;;;;;18.91;70.75;100481.63;106326;1254;68701;-76
2023/09/07 01:23:43;;;;;;;7.10;4.50;;;;;;;18.90;70.90;100485.44;107563;1253;72725;-79
2023/09/07 01:26:11;;;;;;;6.40;4.40;;;;;;;18.88;70.89;100487.41;106755;1254;60506;-76
2023/09/07 01:28:38;;;;;;;6.10;4.20;;;;;;;18.85;70.80;100485.09;106239;1254;60598;-79
2023/09/07 01:31:09;;;;;;;5.10;4.70;;;;;;;18.81;70.85;100485.16;105915;1254;72805;-78
2023/09/07 01:33:37;;;;;;;6.50;4.80;;;;;;;18.74;70.85;100488.30;106107;1254;69951;-78
2023/09/07 01:36:05;;;;;;;6.30;4.70;;;;;;;18.68;70.89;100492.35;105910;1259;72684;-79
2023/09/07 01:38:32;;;;;;;5.80;4.50;;;;;;;18.63;70.89;100498.89;106037;1256;60771;-77
2023/09/07 01:41:00;;;;;;;6.40;3.80;;;;;;;18.66;71.00;100499.02;105983;1253;60486;-76
2023/09/07 01:43:28;;;;;;;8.20;4.50;;;;;;;18.68;71.10;100500.63;106059;1254;73766;-77
2023/09/07 01:45:55;;;;;;;5.10;4.00;;;;;;;18.63;71.28;100500.58;105890;1254;70124;-78
2023/09/07 01:48:24;;;;;;;7.30;4.60;;;;;;;18.56;71.30;100502.37;106045;1254;72696;-78
2023/09/07 01:50:53;;;;;;;5.30;4.30;;;;;;;18.51;71.52;100504.48;105823;1254;60526;-79
2023/09/07 01:53:20;;;;;;;5.70;4.90;;;;;;;18.43;71.60;100504.36;105962;1254;60386;-78
2023/09/07 01:55:49;;;;;;;4.80;4.30;;;;;;;18.36;71.80;100505.16;106024;1255;73952;-77
2023/09/07 01:58:17;;;;;;;5.50;4.60;;;;;;;18.30;72.08;100503.67;105776;1254;69036;-77
2023/09/07 02:00:45;;;;;;;6.50;4.40;;;;;;;18.30;72.22;100502.77;106102;1254;71056;-79
2023/09/07 02:03:12;;;;;;;6.00;4.80;;;;;;;18.27;72.25;100502.48;106625;1253;60549;-79
2023/09/07 02:05:39;;;;;;;7.40;4.80;;;;;;;18.21;72.34;100503.92;107423;1253;60480;-79
2023/09/07 02:08:07;;;;;;;8.90;5.30;;;;;;;18.14;72.45;100503.36;108583;1253;72590;-78
2023/09/07 02:10:35;;;;;;;5.30;4.60;;;;;;;18.09;72.60;100507.39;108315;1254;69048;-77
2023/09/07 02:13:03;;;;;;;4.80;4.30;;;;;;;18.06;72.68;100507.00;106593;1259;72472;-77
2023/09/07 02:15:31;;;;;;;7.90;4.50;;;;;;;18.04;72.82;100509.80;106246;1254;60697;-75
2023/09/07 02:17:58;;;;;;;7.10;4.70;;;;;;;18.11;72.84;100515.42;105639;1259;60432;-79
2023/09/07 02:20:26;;;;;;;5.50;4.90;;;;;;;18.14;72.81;100512.54;105892;1254;73845;-77
2023/09/07 02:22:53;;;;;;;7.10;4.70;;;;;;;18.08;72.92;100512.19;105853;1257;70148;-79
2023/09/07 02:25:21;;;;;;;8.30;5.00;;;;;;;18.02;73.18;100514.21;105861;1259;72680;-77
2023/09/07 02:27:49;;;;;;;4.90;4.40;;;;;;;17.96;73.42;100517.56;105812;1254;60520;-80
2023/09/07 02:30:17;;;;;;;7.90;4.50;;;;;;;17.92;73.73;100514.52;105916;1253;60421;-81
2023/09/07 02:32:45;;;;;;;8.40;4.70;;;;;;;17.95;73.80;100516.45;105974;1254;73795;-82
2023/09/07 02:35:12;;;;;;;5.30;4.30;;;;;;;17.96;73.82;100512.19;105861;1259;70339;-81
2023/09/07 02:37:40;;;;;;;6.10;4.50;;;;;;;17.90;74.03;100514.23;105706;1253;72684;-81
2023/09/07 02:40:08;;;;;;;5.20;4.60;;;;;;;17.81;74.18;100517.00;105685;1254;422653;-81
2023/09/07 02:44:05;;;;;;;8.20;5.80;;;;;;;17.74;74.48;100517.73;102590;1296;601312;-78
2023/09/07 02:46:32;;;;;;;5.30;4.60;;;;;;;17.68;74.70;100518.00;105441;1263;62287;-80
2023/09/07 02:48:58;;;;;;;9.80;4.80;;;;;;;17.74;74.52;100520.49;105818;1257;60083;-79
2023/09/07 02:51:25;;;;;;;6.90;4.90;;;;;;;17.78;74.48;100521.55;105734;1260;72377;-76
2023/09/07 02:53:53;;;;;;;8.40;5.20;;;;;;;17.73;74.38;100518.43;105814;1257;71499;-77
2023/09/07 02:56:20;;;;;;;7.30;5.40;;;;;;;17.68;74.52;100523.60;105789;1254;199119;-77
2023/09/07 02:58:46;;;;;;;6.30;4.60;;;;;;;17.62;74.46;100525.25;105838;1254;59255;-80
2023/09/07 03:01:13;;;;;;;5.70;4.90;;;;;;;17.53;74.78;100528.83;105865;1254;60218;-78
2023/09/07 03:03:42;;;;;;;6.50;5.00;;;;;;;17.47;74.92;100528.93;105943;1254;72217;-77
2023/09/07 03:06:13;;;;;;;6.00;4.60;;;;;;;17.50;75.09;100528.59;106118;1254;70119;-77
2023/09/07 03:08:42;;;;;;;5.30;4.40;;;;;;;17.52;75.21;100534.27;105925;1256;72845;-76
2023/09/07 03:11:09;;;;;;;5.10;4.60;;;;;;;17.46;75.49;100537.11;106234;1253;60264;-79
2023/09/07 03:13:36;;;;;;;5.70;5.10;;;;;;;17.41;75.85;100539.89;107359;1257;59667;-79
2023/09/07 03:16:03;;;;;;;7.10;5.00;;;;;;;17.36;76.31;100542.67;108184;1253;72884;-80
2023/09/07 03:18:31;;;;;;;6.00;4.90;;;;;;;17.30;76.42;100542.84;109045;1251;68769;-78
2023/09/07 03:20:59;;;;;;;9.20;4.90;;;;;;;17.35;76.43;100546.30;109027;1253;71062;-79
2023/09/07 03:23:28;;;;;;;9.80;4.90;;;;;;;17.41;76.47;100554.58;107829;1258;59742;-79
2023/09/07 03:25:55;;;;;;;6.70;4.80;;;;;;;17.38;76.46;100555.30;106488;1253;60125;-82
2023/09/07 03:28:21;;;;;;;5.70;4.90;;;;;;;17.31;76.44;100555.58;106396;1257;72811;-82
2023/09/07 03:30:49;;;;;;;6.00;4.80;;;;;;;17.26;76.45;100559.25;107890;1254;70351;-78
2023/09/07 03:33:15;;;;;;;5.00;4.20;;;;;;;17.23;76.59;100565.86;107492;1252;71270;-81
2023/09/07 03:35:42;;;;;;;7.90;4.90;;;;;;;17.27;76.38;100567.68;106114;1254;59613;-81
2023/09/07 03:38:08;;;;;;;6.50;4.80;;;;;;;17.29;76.34;100576.63;106174;1253;59962;-82
2023/09/07 03:40:35;;;;;;;7.30;5.40;;;;;;;17.24;76.39;100578.97;106192;1256;59654;-80
2023/09/07 03:43:01;;;;;;;5.50;4.80;;;;;;;17.18;76.52;100586.59;105930;1253;70662;-80
2023/09/07 03:45:28;;;;;;;8.90;5.40;;;;;;;17.13;76.57;100584.92;106032;1253;71486;-84
2023/09/07 03:47:56;;;;;;;6.10;4.70;;;;;;;17.09;76.71;100584.88;106270;1252;61895;-84
2023/09/07 03:50:23;;;;;;;7.40;4.40;;;;;;;17.14;76.53;100588.23;106195;1258;60209;-85
2023/09/07 03:52:50;;;;;;;5.20;4.60;;;;;;;17.15;76.34;100590.06;106517;1252;71781;-83
2023/09/07 03:55:16;;;;;;;6.20;5.20;;;;;;;17.10;76.28;100586.88;106218;1257;68961;-82
2023/09/07 03:57:43;;;;;;;6.60;5.00;;;;;;;17.05;76.30;100589.10;106167;1253;72730;-83
2023/09/07 04:00:11;;;;;;;5.60;4.90;;;;;;;17.01;76.43;100590.42;106058;1257;59638;-81
2023/09/07 04:02:43;;;;;;;7.20;4.80;;;;;;;17.00;76.42;100597.02;105928;1254;59728;-81
2023/09/07 04:05:13;;;;;;;7.10;4.50;;;;;;;17.05;76.16;100601.73;105941;1257;73513;-79
2023/09/07 04:07:39;;;;;;;5.10;4.40;;;;;;;17.10;76.09;100606.34;106167;1252;70491;-82
2023/09/07 04:10:06;;;;;;;6.90;5.30;;;;;;;17.12;76.03;100606.02;107990;1253;71432;-82
2023/09/07 04:12:33;;;;;;;8.80;4.70;;;;;;;17.10;76.00;100608.81;107871;1257;60063;-83
2023/09/07 04:15:03;;;;;;;7.20;5.50;;;;;;;17.09;76.04;100612.05;106239;1256;59692;-82
2023/09/07 04:17:30;;;;;;;7.60;4.60;;;;;;;17.10;76.00;100617.31;106193;1253;73427;-80
2023/09/07 04:19:56;;;;;;;8.10;5.00;;;;;;;17.19;75.93;100619.52;106004;1254;70223;-83
2023/09/07 04:22:23;;;;;;;7.30;5.10;;;;;;;17.25;75.60;100619.67;106305;1253;60197;-81
2023/09/07 04:24:50;;;;;;;11.00;5.10;;;;;;;17.24;75.56;100619.41;106629;1253;60150;-86
2023/09/07 04:27:16;;;;;;;5.70;4.70;;;;;;;17.24;75.40;100619.79;107442;1252;59406;-82
2023/09/07 04:29:44;;;;;;;6.30;5.20;;;;;;;17.24;75.37;100617.85;108984;1253;72303;-80
2023/09/07 04:32:11;;;;;;;6.80;5.60;;;;;;;17.26;75.15;100616.05;108386;1252;69138;-79
2023/09/07 04:34:37;;;;;;;9.00;5.40;;;;;;;17.28;75.02;100625.20;106846;1257;71060;-80
2023/09/07 04:37:04;;;;;;;8.00;4.50;;;;;;;17.39;74.66;100622.65;106291;1253;62149;-83
2023/09/07 04:39:31;;;;;;;5.10;4.60;;;;;;;17.44;74.20;100625.40;106235;1253;60113;-80
2023/09/07 04:41:57;;;;;;;5.10;4.30;;;;;;;17.41;73.90;100629.71;105949;1255;72893;-80
2023/09/07 04:44:27;;;;;;;8.10;5.20;;;;;;;17.38;73.64;100630.09;105976;1253;70416;-80
2023/09/07 04:46:56;;;;;;;6.70;5.30;;;;;;;17.38;73.47;100629.18;106013;1257;71816;-79
2023/09/07 04:49:24;;;;;;;6.00;4.50;;;;;;;17.39;73.38;100629.77;107195;1252;60318;-79
2023/09/07 04:51:53;;;;;;;8.60;4.50;;;;;;;17.40;73.38;100633.63;106700;1252;59711;-81
2023/09/07 04:54:20;;;;;;;5.90;4.40;;;;;;;17.50;73.23;100632.52;106231;1253;72753;-80
2023/09/07 04:56:47;;;;;;;8.00;4.30;;;;;;;17.60;73.04;100639.06;106090;1253;70285;-83
2023/09/07 04:59:14;;;;;;;6.50;4.10;;;;;;;17.63;72.86;100637.40;106886;1257;71906;-84
2023/09/07 05:01:41;;;;;;;6.90;4.50;;;;;;;17.64;72.60;100639.52;107105;1256;59697;-81
2023/09/07 05:04:08;;;;;;;7.10;4.90;;;;;;;17.65;72.35;100637.46;106962;1253;59703;-82
2023/09/07 05:06:37;;;;;;;6.10;5.00;;;;;;;17.66;72.02;100639.38;106159;1257;72890;-85
2023/09/07 05:09:04;;;;;;;5.70;4.70;;;;;;;17.65;71.89;100638.16;106365;1253;70222;-84
2023/09/07 05:11:34;;;;;;;4.70;4.30;;;;;;;17.65;71.80;100635.51;106326;1252;72707;-85
2023/09/07 05:14:02;;;;;;;8.00;4.90;;;;;;;17.68;71.88;100633.73;106498;1253;60372;-85
2023/09/07 05:16:29;;;;;;;8.60;5.00;;;;;;;17.82;71.55;100635.67;106340;1256;59505;-80
2023/09/07 05:18:56;;;;;;;7.60;5.00;;;;;;;17.92;71.11;100636.89;106260;1257;72773;-80
2023/09/07 05:21:23;;;;;;;6.00;4.80;;;;;;;17.95;70.80;100635.55;106659;1256;70129;-84
2023/09/07 05:23:51;;;;;;;6.70;4.90;;;;;;;17.98;70.63;100636.77;107569;1256;71474;-75
2023/09/07 05:26:24;;;;;;;8.10;4.00;;;;;;;18.01;70.46;100637.91;107743;1252;59153;-74
2023/09/07 05:28:52;;;;;;;7.20;4.40;;;;;;;18.05;70.15;100634.93;107403;1252;60287;-75
2023/09/07 05:31:18;;;;;;;8.30;5.20;;;;;;;18.10;70.15;100636.73;106492;1256;72991;-75
2023/09/07 05:33:46;;;;;;;6.50;4.80;;;;;;;18.14;69.87;100636.73;106406;1253;70112;-74
2023/09/07 05:36:12;;;;;;;5.40;4.60;;;;;;;18.17;69.80;100638.83;106068;1253;72834;-75
2023/09/07 05:38:39;;;;;;;7.50;5.10;;;;;;;18.21;69.50;100640.70;107441;1252;60051;-76
2023/09/07 05:41:07;;;;;;;7.40;4.40;;;;;;;18.24;69.30;100643.01;108431;1253;60384;-74
2023/09/07 05:43:34;;;;;;;9.50;4.10;;;;;;;18.25;68.98;100644.39;106100;1258;72842;-72
2023/09/07 05:46:01;;;;;;;6.90;4.10;;;;;;;18.37;68.87;100645.45;105550;1253;70854;-75
2023/09/07 05:48:28;;;;;;;6.50;4.30;;;;;;;18.45;68.60;100650.63;105737;1256;72726;-76
2023/09/07 05:50:56;;;;;;;6.20;4.60;;;;;;;18.50;68.28;100655.38;105594;1253;60436;-75
2023/09/07 05:53:24;;;;;;;6.50;4.80;;;;;;;18.53;68.12;100656.31;105528;1253;60365;-72
2023/09/07 05:55:51;;;;;;;5.20;4.00;;;;;;;18.56;68.04;100660.89;105645;1256;73575;-76
2023/09/07 05:58:19;;;;;;;7.40;4.50;;;;;;;18.61;67.77;100658.50;105788;1253;71136;-75
2023/09/07 06:00:45;;;;;;;8.40;4.90;;;;;;;18.64;67.53;100661.92;105832;1253;73087;-76
2023/09/07 06:03:12;;;;;;;6.90;4.50;;;;;;;18.65;67.56;100661.59;105862;1253;60385;-75
2023/09/07 06:05:39;;;;;;;5.50;4.50;;;;;;;18.67;67.32;100665.77;105537;1254;60280;-74
2023/09/07 06:08:07;;;;;;;5.20;4.50;;;;;;;18.67;66.89;100665.58;105468;1256;72845;-76
2023/09/07 06:10:34;;;;;;;5.30;3.90;;;;;;;18.65;66.84;100669.95;105948;1257;70548;-74
2023/09/07 06:13:02;;;;;;;5.50;4.60;;;;;;;18.65;66.74;100669.17;105591;1258;72557;-73
2023/09/07 06:15:31;;;;;;;6.60;4.60;;;;;;;18.66;67.05;100668.89;105499;1253;59685;-72
2023/09/07 06:17:58;;;;;;;4.80;4.30;;;;;;;18.68;66.99;100670.14;105498;1258;60016;-72
2023/09/07 06:20:25;;;;;;;5.10;4.10;;;;;;;18.70;66.84;100671.89;105444;1255;73478;-72
2023/09/07 06:22:53;;;;;;;6.00;4.10;;;;;;;18.73;66.77;100677.22;105488;1254;70791;-73
2023/09/07 06:25:22;;;;;;;5.20;3.90;;;;;;;18.80;66.41;100676.52;105768;1253;73160;-73
2023/09/07 06:27:49;;;;;;;5.60;4.90;;;;;;;18.87;66.26;100680.75;105535;1253;60391;-74
2023/09/07 06:30:15;;;;;;;6.90;4.20;;;;;;;18.93;65.93;100686.91;105506;1253;60629;-72
2023/09/07 06:32:43;;;;;;;6.80;4.30;;;;;;;18.96;65.54;100689.37;105374;1256;73396;-73
2023/09/07 06:35:10;;;;;;;9.40;3.90;;;;;;;18.98;65.44;100692.64;105391;1253;70257;-73
2023/09/07 06:37:40;;;;;;;7.30;4.10;;;;;;;19.03;65.39;100692.13;105306;1253;73138;-72
2023/09/07 06:40:09;;;;;;;6.20;4.10;;;;;;;19.10;65.26;100696.38;105373;1253;60334;-73
2023/09/07 06:42:37;;;;;;;9.50;4.10;;;;;;;19.16;65.19;100695.38;105452;1257;59605;-73
2023/09/07 06:45:09;;;;;;;8.40;4.30;;;;;;;19.21;64.89;100698.96;105455;1252;73852;-72
2023/09/07 06:47:36;;;;;;;7.90;4.10;;;;;;;19.25;64.77;100700.50;105390;1255;70915;-73
2023/09/07 06:50:04;;;;;;;6.10;4.00;;;;;;;19.31;64.67;100702.34;106377;1252;73224;-72
2023/09/07 06:52:32;;;;;;;6.10;4.00;;;;;;;19.38;64.31;100706.05;105717;1253;60431;-74
2023/09/07 06:54:59;;;;;;;5.80;4.30;;;;;;;19.47;63.93;100709.15;105490;1252;60872;-73
2023/09/07 06:57:26;;;;;;;8.20;4.10;;;;;;;19.52;63.75;100713.11;105464;1253;74389;-70
2023/09/07 06:59:53;;;;;;;7.10;4.20;;;;;;;19.58;63.69;100712.79;105632;1253;70641;-73
2023/09/07 07:02:20;;;;;;;6.80;4.20;;;;;;;19.65;63.55;100714.70;105665;1253;73153;-72
2023/09/07 07:04:47;;;;;;;7.60;3.50;;;;;;;19.72;62.79;100714.58;105545;1253;60543;-71
2023/09/07 07:07:16;;;;;;;5.30;3.60;;;;;;;19.76;62.16;100711.48;105596;1257;60544;-72
2023/09/07 07:09:43;;;;;;;7.00;3.90;;;;;;;19.79;62.03;100710.70;105554;1257;74542;-75
2023/09/07 07:12:10;;;;;;;8.90;5.30;;;;;;;19.84;61.71;100711.95;105880;1253;71054;-75
2023/09/07 07:14:38;;;;;;;3.60;3.30;;;;;;;19.87;61.31;100711.25;105846;1253;72521;-74
2023/09/07 07:17:05;;;;;;;6.90;3.60;;;;;;;19.89;60.67;100709.68;105926;1254;60512;-75
2023/09/07 07:19:32;;;;;;;3.80;3.30;;;;;;;19.93;60.09;100710.35;105951;1253;60422;-74
2023/09/07 07:22:00;;;;;;;9.00;3.90;;;;;;;19.98;59.26;100710.23;106199;1256;73858;-75
2023/09/07 07:24:27;;;;;;;6.90;4.20;;;;;;;20.01;59.17;100711.84;106030;1253;70699;-74
2023/09/07 07:26:54;;;;;;;5.40;4.90;;;;;;;20.04;59.39;100711.27;106747;1253;72672;-76
2023/09/07 07:29:21;;;;;;;7.50;3.70;;;;;;;20.08;59.52;100710.68;106298;1253;60479;-76
2023/09/07 07:31:48;;;;;;;6.60;4.00;;;;;;;20.15;59.72;100709.81;106029;1253;60442;-77
2023/09/07 07:34:15;;;;;;;9.60;3.50;;;;;;;20.23;59.49;100709.07;106007;1252;74171;-77
2023/09/07 07:36:43;;;;;;;6.30;3.40;;;;;;;20.28;59.11;100706.52;105964;1254;69826;-77
2023/09/07 07:39:10;;;;;;;6.00;3.70;;;;;;;20.34;58.92;100708.06;105923;1253;72712;-78
2023/09/07 07:41:38;;;;;;;5.70;3.50;;;;;;;20.42;58.41;100711.30;106091;1253;60747;-77
2023/09/07 07:44:07;;;;;;;6.70;4.00;;;;;;;20.50;58.39;100713.49;106156;1253;60527;-77
2023/09/07 07:46:33;;;;;;;3.30;2.90;;;;;;;20.58;58.22;100711.20;105923;1253;73662;-78
2023/09/07 07:49:00;;;;;;;6.50;3.10;;;;;;;20.68;57.59;100713.44;105755;1253;70296;-76
2023/09/07 07:51:27;;;;;;;4.60;3.30;;;;;;;20.75;57.28;100712.55;105826;1257;72713;-77
2023/09/07 07:53:56;;;;;;;4.50;3.30;;;;;;;20.81;57.00;100712.27;105885;1253;60464;-76
2023/09/07 07:56:23;;;;;;;7.90;3.40;;;;;;;20.87;56.50;100713.48;105921;1253;60403;-76
2023/09/07 07:58:51;;;;;;;5.10;3.30;;;;;;;20.93;56.39;100710.30;105869;1253;72536;-77
2023/09/07 08:01:23;;;;;;;5.60;3.30;;;;;;;21.01;56.16;100711.89;106416;1253;70242;-73
2023/09/07 08:03:51;;;;;;;5.80;3.30;;;;;;;21.13;56.29;100713.14;107208;1253;70206;-76
2023/09/07 08:06:18;;;;;;;7.20;3.20;;;;;;;21.26;55.92;100710.49;107293;1257;60353;-76
2023/09/07 08:08:45;;;;;;;9.00;3.80;;;;;;;21.38;55.26;100708.54;106431;1255;60445;-76
2023/09/07 08:11:12;;;;;;;3.70;3.30;;;;;;;21.47;55.30;100712.30;106200;1253;72698;-77
2023/09/07 08:13:39;;;;;;;4.00;3.50;;;;;;;21.55;54.95;100708.85;105930;1253;69966;-76
2023/09/07 08:16:06;;;;;;;6.00;3.10;;;;;;;21.62;54.56;100708.77;105925;1253;72059;-75
2023/09/07 08:18:33;;;;;;;3.20;2.90;;;;;;;21.70;54.39;100707.30;105730;1254;60551;-76
2023/09/07 08:21:01;;;;;;;5.20;3.10;;;;;;;21.82;54.22;100709.55;105912;1253;60557;-74
2023/09/07 08:23:28;;;;;;;4.50;2.90;;;;;;;21.95;53.70;100703.77;105812;1253;72508;-73
2023/09/07 08:25:55;;;;;;;5.10;2.80;;;;;;;22.08;53.03;100706.99;105679;1253;70101;-76
2023/09/07 08:28:22;;;;;;;4.10;3.00;;;;;;;22.20;52.74;100707.13;106045;1253;72293;-77
2023/09/07 08:30:50;;;;;;;4.90;2.90;;;;;;;22.33;52.52;100712.87;105741;1258;60530;-77
2023/09/07 08:33:17;;;;;;;2.80;2.50;;;;;;;22.46;51.89;100712.63;106135;1253;60496;-77
2023/09/07 08:35:44;;;;;;;4.00;2.90;;;;;;;22.58;51.15;100713.31;106134;1253;72427;-80
2023/09/07 08:38:11;;;;;;;6.00;3.00;;;;;;;22.69;50.46;100713.91;105761;1253;70655;-75
2023/09/07 08:40:40;;;;;;;4.30;2.60;;;;;;;22.79;50.40;100712.91;105944;1254;73287;-79
2023/09/07 08:43:09;;;;;;;4.20;2.80;;;;;;;22.91;49.82;100714.91;107039;1253;60477;-75
2023/09/07 08:45:40;;;;;;;3.10;2.60;;;;;;;23.04;49.72;100714.98;106088;1252;60550;-80
2023/09/07 08:48:08;;;;;;;3.70;3.10;;;;;;;23.20;49.36;100713.77;106480;1256;73894;-79
2023/09/07 08:50:37;;;;;;;4.00;2.90;;;;;;;23.36;49.12;100717.06;107498;1255;69074;-79
2023/09/07 08:53:05;;;;;;;4.30;3.00;;;;;;;23.46;48.65;100717.34;108127;1253;73263;-78
2023/09/07 08:55:31;;;;;;;4.10;2.90;;;;;;;23.58;48.59;100719.61;108142;1253;60383;-79
2023/09/07 08:57:58;;;;;;;4.80;2.70;;;;;;;23.76;48.58;100719.22;107961;1253;60543;-80
2023/09/07 09:00:25;;;;;;;4.00;3.20;;;;;;;24.00;48.11;100719.48;106781;1252;72450;-81
2023/09/07 09:02:54;;;;;;;5.60;3.00;;;;;;;24.33;47.58;100725.55;106333;1253;70222;-80
2023/09/07 09:05:24;;;;;;;2.90;2.50;;;;;;;24.72;46.84;100723.20;106051;1257;71232;-77
2023/09/07 09:08:01;;;;;;;6.20;3.60;;;;;;;25.24;45.93;100715.04;106087;1253;60460;-79
2023/09/07 09:10:28;;;;;;;3.60;2.80;;;;;;;25.87;44.98;100717.16;106352;1253;60493;-80
2023/09/07 09:12:54;;;;;;;6.00;3.20;;;;;;;26.47;44.41;100714.42;106952;1255;59273;-79
2023/09/07 09:15:22;;;;;;;4.70;2.90;;;;;;;27.15;43.50;100718.17;108582;1253;68838;-80
2023/09/07 09:17:49;;;;;;;3.80;3.00;;;;;;;27.80;42.21;100717.09;108205;1252;73260;-80
2023/09/07 09:20:26;;;;;;;4.00;2.90;;;;;;;28.36;41.46;100719.30;107234;1253;60550;-78
2023/09/07 09:22:54;;;;;;;5.50;3.20;;;;;;;28.96;40.90;100719.99;106649;1253;60435;-79
2023/09/07 09:25:21;;;;;;;5.10;3.00;;;;;;;29.52;40.27;100714.45;106417;1252;72413;-79
2023/09/07 09:27:47;;;;;;;6.50;3.20;;;;;;;30.01;39.04;100714.93;106321;1256;68884;-79
2023/09/07 09:30:16;;;;;;;5.30;3.80;;;;;;;30.35;38.64;100714.28;106626;1253;71258;-78
2023/09/07 09:32:43;;;;;;;4.00;3.20;;;;;;;30.69;38.12;100713.88;107680;1253;60476;-78
2023/09/07 09:35:10;;;;;;;5.00;3.20;;;;;;;31.07;37.56;100712.98;107068;1255;60101;-78
2023/09/07 09:37:47;;;;;;;7.60;3.10;;;;;;;31.42;37.15;100716.10;107006;1253;72704;-77
2023/09/07 09:40:13;;;;;;;5.70;3.30;;;;;;;31.82;36.37;100714.13;106647;1255;70406;-79
2023/09/07 09:42:44;;;;;;;3.70;3.20;;;;;;;32.13;35.92;100716.91;105709;1252;72739;-82
2023/09/07 09:45:11;;;;;;;3.90;3.10;;;;;;;32.37;35.35;100717.58;106108;1253;60541;-82
2023/09/07 09:47:39;;;;;;;4.10;2.80;;;;;;;32.59;35.03;100718.56;106010;1256;60488;-79
2023/09/07 09:50:07;;;;;;;4.70;3.40;;;;;;;32.84;35.09;100723.40;105684;1253;73674;-80
2023/09/07 09:52:35;;;;;;;3.90;2.80;;;;;;;33.16;34.51;100723.30;105978;1255;70365;-80
2023/09/07 09:55:05;;;;;;;3.50;3.10;;;;;;;33.57;33.79;100724.54;106050;1254;73042;-79
2023/09/07 09:57:32;;;;;;;5.00;2.80;;;;;;;33.84;33.03;100720.94;105985;1256;61720;-80
2023/09/07 09:59:59;;;;;;;2.90;2.40;;;;;;;34.03;32.84;100722.26;106014;1253;60516;-78
2023/09/07 10:02:26;;;;;;;3.30;3.00;;;;;;;34.24;32.39;100723.52;106424;1256;72622;-80
2023/09/07 10:04:53;;;;;;;4.20;3.00;;;;;;;34.43;31.87;100724.77;106171;1254;61758;-80
2023/09/07 10:07:20;;;;;;;4.00;2.80;;;;;;;34.62;31.51;100725.86;106085;1255;63826;-80
2023/09/07 10:09:46;;;;;;;3.40;2.60;;;;;;;34.79;30.60;100725.15;106135;1253;60469;-80
2023/09/07 10:12:13;;;;;;;2.90;2.60;;;;;;;35.03;30.37;100725.80;106044;1253;60347;-80
2023/09/07 10:14:50;;;;;;;4.50;2.40;;;;;;;35.36;29.74;100726.17;105758;1255;65317;-80
2023/09/07 10:17:26;;;;;;;3.70;2.60;;;;;;;35.67;29.02;100724.91;105915;1252;61627;-80
2023/09/07 10:20:05;;;;;;;3.80;2.40;;;;;;;35.84;28.66;100728.92;106104;1253;63731;-80
2023/09/07 10:22:32;;;;;;;3.70;2.40;;;;;;;35.95;27.91;100730.37;106639;1255;60463;-80
2023/09/07 10:24:59;;;;;;;3.00;2.20;;;;;;;35.97;27.95;100724.36;106523;1253;60614;-81
2023/09/07 10:27:25;;;;;;;4.70;2.40;;;;;;;36.06;27.63;100726.71;107696;1253;65207;-80
2023/09/07 10:29:52;;;;;;;4.00;2.20;;;;;;;36.15;27.51;100726.36;107552;1253;70315;-79
2023/09/07 10:32:23;;;;;;;5.60;2.00;;;;;;;36.27;27.10;100728.69;107457;1253;64325;-79
2023/09/07 10:34:50;;;;;;;3.90;2.70;;;;;;;36.48;26.71;100727.61;106891;1252;60398;-79
2023/09/07 10:37:17;;;;;;;4.30;2.30;;;;;;;36.78;26.76;100726.83;106501;1255;60550;-76
2023/09/07 10:39:44;;;;;;;4.00;2.30;;;;;;;37.04;26.46;100726.09;106772;1253;65143;-80
2023/09/07 10:42:24;;;;;;;5.80;2.60;;;;;;;37.15;26.25;100724.98;106951;1255;60465;-79
2023/09/07 10:44:51;;;;;;;4.80;2.30;;;;;;;37.35;26.58;100726.13;106730;1253;63805;-80
2023/09/07 10:47:18;;;;;;;4.10;2.50;;;;;;;37.60;26.06;100719.91;106353;1253;60463;-81
2023/09/07 10:49:45;;;;;;;5.10;2.30;;;;;;;37.83;25.94;100718.73;106042;1257;60303;-81
2023/09/07 10:52:11;;;;;;;4.00;2.50;;;;;;;38.11;25.72;100717.11;106264;1257;65244;-82
2023/09/07 10:54:38;;;;;;;4.80;2.60;;;;;;;38.41;25.47;100714.49;106121;1253;70165;-82
2023/09/07 10:57:09;;;;;;;3.30;2.30;;;;;;;38.48;24.89;100712.51;106728;1257;63839;-79
2023/09/07 10:59:36;;;;;;;4.50;2.30;;;;;;;38.60;24.47;100712.84;106471;1257;60407;-81
2023/09/07 11:02:04;;;;;;;2.40;2.00;;;;;;;38.81;24.21;100711.22;106469;1253;60439;-82
2023/09/07 11:04:31;;;;;;;2.80;2.20;;;;;;;39.02;23.90;100707.52;106409;1254;66144;-80
2023/09/07 11:06:58;;;;;;;3.10;2.40;;;;;;;39.15;23.93;100704.85;106454;1253;61668;-82
2023/09/07 11:09:25;;;;;;;4.30;2.10;;;;;;;39.35;23.42;100705.46;106132;1253;64190;-81
2023/09/07 11:11:52;;;;;;;4.90;2.50;;;;;;;39.52;22.73;100703.73;105974;1253;60526;-82
2023/09/07 11:14:18;;;;;;;2.80;2.30;;;;;;;39.59;22.70;100708.76;106188;1253;60372;-82
2023/09/07 11:16:45;;;;;;;4.30;2.70;;;;;;;39.58;22.63;100705.63;106169;1269;60355;-80
2023/09/07 11:19:12;;;;;;;3.10;2.20;;;;;;;39.47;22.48;100704.09;106596;1253;61690;-81
2023/09/07 11:21:38;;;;;;;2.40;2.20;;;;;;;39.45;22.29;100702.38;106330;1258;62843;-82